<?xml version="1.0" encoding="UTF-8" standalone="no" ?>
<gpx xmlns="http://www.topografix.com/GPX/1/1" xmlns:xsi="http://www.w3.org/2001/XMLSchema-instance" xsi:schemaLocation="http://www.topografix.com/GPX/1/1 http://www.topografix.com/GPX/1/1/gpx.xsd" version="1.1" creator="VisuGPX - https://www.visugpx.com">
  <metadata>
    <name>83 - V - Roquebrune sur Argens</name>
    <desc><![CDATA[grp_trc:]]></desc>
  </metadata>
  <trk>
    <name><![CDATA[Roquebrune ]]></name>
    <cmt><![CDATA[Les 25 ponts et le monastère ]]></cmt>
    <desc><![CDATA[comment ...
Type : Reconnaissances]]></desc>
    <trkseg>
      <trkpt lat="43.44006" lon="6.63426">
        <ele>45</ele>
        <time>2025-01-12T10:31:18Z</time>
      </trkpt>
      <trkpt lat="43.44006" lon="6.63425">
        <ele>45</ele>
        <time>2025-01-12T10:31:20Z</time>
      </trkpt>
      <trkpt lat="43.44003" lon="6.63411">
        <ele>45</ele>
        <time>2025-01-12T10:31:30Z</time>
      </trkpt>
      <trkpt lat="43.44001" lon="6.63403">
        <ele>45</ele>
        <time>2025-01-12T10:31:36Z</time>
      </trkpt>
      <trkpt lat="43.43998" lon="6.63391">
        <ele>45</ele>
        <time>2025-01-12T10:31:44Z</time>
      </trkpt>
      <trkpt lat="43.43997" lon="6.63382">
        <ele>45</ele>
        <time>2025-01-12T10:31:50Z</time>
      </trkpt>
      <trkpt lat="43.44" lon="6.63378">
        <ele>43</ele>
        <time>2025-01-12T10:31:54Z</time>
      </trkpt>
      <trkpt lat="43.44" lon="6.63372">
        <ele>43</ele>
        <time>2025-01-12T10:32:14Z</time>
      </trkpt>
      <trkpt lat="43.44" lon="6.63362">
        <ele>46</ele>
        <time>2025-01-12T10:32:22Z</time>
      </trkpt>
      <trkpt lat="43.44" lon="6.63337">
        <ele>49</ele>
        <time>2025-01-12T10:32:36Z</time>
      </trkpt>
      <trkpt lat="43.44002" lon="6.63331">
        <ele>48</ele>
        <time>2025-01-12T10:32:40Z</time>
      </trkpt>
      <trkpt lat="43.44003" lon="6.63326">
        <ele>46</ele>
        <time>2025-01-12T10:32:44Z</time>
      </trkpt>
      <trkpt lat="43.44008" lon="6.63297">
        <ele>46</ele>
        <time>2025-01-12T10:33:00Z</time>
      </trkpt>
      <trkpt lat="43.44008" lon="6.6329">
        <ele>46</ele>
        <time>2025-01-12T10:33:04Z</time>
      </trkpt>
      <trkpt lat="43.44011" lon="6.63277">
        <ele>45</ele>
        <time>2025-01-12T10:33:12Z</time>
      </trkpt>
      <trkpt lat="43.44012" lon="6.6327">
        <ele>45</ele>
        <time>2025-01-12T10:33:16Z</time>
      </trkpt>
      <trkpt lat="43.44042" lon="6.63238">
        <ele>46</ele>
        <time>2025-01-12T10:33:48Z</time>
      </trkpt>
      <trkpt lat="43.44045" lon="6.63233">
        <ele>47</ele>
        <time>2025-01-12T10:33:52Z</time>
      </trkpt>
      <trkpt lat="43.44049" lon="6.63228">
        <ele>47</ele>
        <time>2025-01-12T10:33:56Z</time>
      </trkpt>
      <trkpt lat="43.44074" lon="6.63208">
        <ele>46</ele>
        <time>2025-01-12T10:34:20Z</time>
      </trkpt>
      <trkpt lat="43.4408" lon="6.63192">
        <ele>49</ele>
        <time>2025-01-12T10:34:32Z</time>
      </trkpt>
      <trkpt lat="43.44086" lon="6.63176">
        <ele>51</ele>
        <time>2025-01-12T10:34:42Z</time>
      </trkpt>
      <trkpt lat="43.44088" lon="6.63169">
        <ele>53</ele>
        <time>2025-01-12T10:34:46Z</time>
      </trkpt>
      <trkpt lat="43.44096" lon="6.63145">
        <ele>53</ele>
        <time>2025-01-12T10:35:02Z</time>
      </trkpt>
      <trkpt lat="43.441" lon="6.63135">
        <ele>53</ele>
        <time>2025-01-12T10:35:10Z</time>
      </trkpt>
      <trkpt lat="43.44103" lon="6.63122">
        <ele>52</ele>
        <time>2025-01-12T10:35:18Z</time>
      </trkpt>
      <trkpt lat="43.44104" lon="6.63093">
        <ele>53</ele>
        <time>2025-01-12T10:35:36Z</time>
      </trkpt>
      <trkpt lat="43.44097" lon="6.63074">
        <ele>50</ele>
        <time>2025-01-12T10:35:48Z</time>
      </trkpt>
      <trkpt lat="43.44094" lon="6.63029">
        <ele>53</ele>
        <time>2025-01-12T10:36:18Z</time>
      </trkpt>
      <trkpt lat="43.44094" lon="6.63023">
        <ele>54</ele>
        <time>2025-01-12T10:36:22Z</time>
      </trkpt>
      <trkpt lat="43.44095" lon="6.63018">
        <ele>54</ele>
        <time>2025-01-12T10:36:26Z</time>
      </trkpt>
      <trkpt lat="43.44091" lon="6.62998">
        <ele>55</ele>
        <time>2025-01-12T10:36:40Z</time>
      </trkpt>
      <trkpt lat="43.4409" lon="6.62992">
        <ele>56</ele>
        <time>2025-01-12T10:36:44Z</time>
      </trkpt>
      <trkpt lat="43.4409" lon="6.6298">
        <ele>58</ele>
        <time>2025-01-12T10:36:52Z</time>
      </trkpt>
      <trkpt lat="43.4409" lon="6.62974">
        <ele>59</ele>
        <time>2025-01-12T10:36:56Z</time>
      </trkpt>
      <trkpt lat="43.44088" lon="6.62951">
        <ele>60</ele>
        <time>2025-01-12T10:37:12Z</time>
      </trkpt>
      <trkpt lat="43.44084" lon="6.62945">
        <ele>60</ele>
        <time>2025-01-12T10:37:16Z</time>
      </trkpt>
      <trkpt lat="43.44084" lon="6.62939">
        <ele>60</ele>
        <time>2025-01-12T10:37:20Z</time>
      </trkpt>
      <trkpt lat="43.44082" lon="6.62926">
        <ele>61</ele>
        <time>2025-01-12T10:37:30Z</time>
      </trkpt>
      <trkpt lat="43.44075" lon="6.62883">
        <ele>61</ele>
        <time>2025-01-12T10:37:58Z</time>
      </trkpt>
      <trkpt lat="43.44072" lon="6.62877">
        <ele>61</ele>
        <time>2025-01-12T10:38:02Z</time>
      </trkpt>
      <trkpt lat="43.4407" lon="6.62865">
        <ele>60</ele>
        <time>2025-01-12T10:38:10Z</time>
      </trkpt>
      <trkpt lat="43.44067" lon="6.62861">
        <ele>61</ele>
        <time>2025-01-12T10:38:14Z</time>
      </trkpt>
      <trkpt lat="43.44059" lon="6.62857">
        <ele>62</ele>
        <time>2025-01-12T10:38:22Z</time>
      </trkpt>
      <trkpt lat="43.44056" lon="6.62856">
        <ele>63</ele>
        <time>2025-01-12T10:38:26Z</time>
      </trkpt>
      <trkpt lat="43.44053" lon="6.6285">
        <ele>62</ele>
        <time>2025-01-12T10:38:32Z</time>
      </trkpt>
      <trkpt lat="43.44054" lon="6.62837">
        <ele>63</ele>
        <time>2025-01-12T10:38:42Z</time>
      </trkpt>
      <trkpt lat="43.4406" lon="6.62827">
        <ele>63</ele>
        <time>2025-01-12T10:38:52Z</time>
      </trkpt>
      <trkpt lat="43.44063" lon="6.62824">
        <ele>64</ele>
        <time>2025-01-12T10:38:56Z</time>
      </trkpt>
      <trkpt lat="43.44066" lon="6.62821">
        <ele>65</ele>
        <time>2025-01-12T10:39:00Z</time>
      </trkpt>
      <trkpt lat="43.4407" lon="6.62816">
        <ele>65</ele>
        <time>2025-01-12T10:39:06Z</time>
      </trkpt>
      <trkpt lat="43.44076" lon="6.62812">
        <ele>66</ele>
        <time>2025-01-12T10:39:18Z</time>
      </trkpt>
      <trkpt lat="43.44083" lon="6.62818">
        <ele>67</ele>
        <time>2025-01-12T10:39:26Z</time>
      </trkpt>
      <trkpt lat="43.44086" lon="6.62816">
        <ele>66</ele>
        <time>2025-01-12T10:39:50Z</time>
      </trkpt>
      <trkpt lat="43.44089" lon="6.62812">
        <ele>66</ele>
        <time>2025-01-12T10:39:54Z</time>
      </trkpt>
      <trkpt lat="43.44089" lon="6.62806">
        <ele>66</ele>
        <time>2025-01-12T10:40:16Z</time>
      </trkpt>
      <trkpt lat="43.44083" lon="6.62797">
        <ele>67</ele>
        <time>2025-01-12T10:40:24Z</time>
      </trkpt>
      <trkpt lat="43.44079" lon="6.62787">
        <ele>67</ele>
        <time>2025-01-12T10:40:38Z</time>
      </trkpt>
      <trkpt lat="43.44076" lon="6.62783">
        <ele>67</ele>
        <time>2025-01-12T10:40:42Z</time>
      </trkpt>
      <trkpt lat="43.4407" lon="6.62766">
        <ele>66</ele>
        <time>2025-01-12T10:40:54Z</time>
      </trkpt>
      <trkpt lat="43.44069" lon="6.62761">
        <ele>66</ele>
        <time>2025-01-12T10:40:58Z</time>
      </trkpt>
      <trkpt lat="43.44065" lon="6.62758">
        <ele>66</ele>
        <time>2025-01-12T10:41:02Z</time>
      </trkpt>
      <trkpt lat="43.44062" lon="6.62753">
        <ele>66</ele>
        <time>2025-01-12T10:41:08Z</time>
      </trkpt>
      <trkpt lat="43.44055" lon="6.62745">
        <ele>65</ele>
        <time>2025-01-12T10:41:18Z</time>
      </trkpt>
      <trkpt lat="43.4405" lon="6.62737">
        <ele>66</ele>
        <time>2025-01-12T10:41:38Z</time>
      </trkpt>
      <trkpt lat="43.44047" lon="6.62734">
        <ele>65</ele>
        <time>2025-01-12T10:41:44Z</time>
      </trkpt>
      <trkpt lat="43.44044" lon="6.62724">
        <ele>64</ele>
        <time>2025-01-12T10:41:52Z</time>
      </trkpt>
      <trkpt lat="43.44044" lon="6.62717">
        <ele>62</ele>
        <time>2025-01-12T10:41:56Z</time>
      </trkpt>
      <trkpt lat="43.44045" lon="6.62711">
        <ele>62</ele>
        <time>2025-01-12T10:42:00Z</time>
      </trkpt>
      <trkpt lat="43.44043" lon="6.62704">
        <ele>62</ele>
        <time>2025-01-12T10:42:04Z</time>
      </trkpt>
      <trkpt lat="43.44038" lon="6.62693">
        <ele>62</ele>
        <time>2025-01-12T10:42:12Z</time>
      </trkpt>
      <trkpt lat="43.44034" lon="6.6268">
        <ele>62</ele>
        <time>2025-01-12T10:42:20Z</time>
      </trkpt>
      <trkpt lat="43.44031" lon="6.62676">
        <ele>62</ele>
        <time>2025-01-12T10:42:24Z</time>
      </trkpt>
      <trkpt lat="43.44028" lon="6.62672">
        <ele>62</ele>
        <time>2025-01-12T10:42:28Z</time>
      </trkpt>
      <trkpt lat="43.44027" lon="6.62666">
        <ele>62</ele>
        <time>2025-01-12T10:42:32Z</time>
      </trkpt>
      <trkpt lat="43.44029" lon="6.62654">
        <ele>62</ele>
        <time>2025-01-12T10:42:40Z</time>
      </trkpt>
      <trkpt lat="43.44032" lon="6.62648">
        <ele>61</ele>
        <time>2025-01-12T10:42:44Z</time>
      </trkpt>
      <trkpt lat="43.44036" lon="6.62636">
        <ele>62</ele>
        <time>2025-01-12T10:42:52Z</time>
      </trkpt>
      <trkpt lat="43.44038" lon="6.62628">
        <ele>62</ele>
        <time>2025-01-12T10:42:56Z</time>
      </trkpt>
      <trkpt lat="43.44039" lon="6.62622">
        <ele>62</ele>
        <time>2025-01-12T10:43:00Z</time>
      </trkpt>
      <trkpt lat="43.44038" lon="6.62617">
        <ele>62</ele>
        <time>2025-01-12T10:43:04Z</time>
      </trkpt>
      <trkpt lat="43.44037" lon="6.62604">
        <ele>60</ele>
        <time>2025-01-12T10:43:12Z</time>
      </trkpt>
      <trkpt lat="43.44038" lon="6.62593">
        <ele>57</ele>
        <time>2025-01-12T10:43:20Z</time>
      </trkpt>
      <trkpt lat="43.4404" lon="6.62587">
        <ele>57</ele>
        <time>2025-01-12T10:43:24Z</time>
      </trkpt>
      <trkpt lat="43.44043" lon="6.62577">
        <ele>55</ele>
        <time>2025-01-12T10:43:32Z</time>
      </trkpt>
      <trkpt lat="43.44044" lon="6.62572">
        <ele>53</ele>
        <time>2025-01-12T10:43:36Z</time>
      </trkpt>
      <trkpt lat="43.44046" lon="6.62567">
        <ele>54</ele>
        <time>2025-01-12T10:43:40Z</time>
      </trkpt>
      <trkpt lat="43.44048" lon="6.62557">
        <ele>52</ele>
        <time>2025-01-12T10:43:48Z</time>
      </trkpt>
      <trkpt lat="43.44051" lon="6.62552">
        <ele>52</ele>
        <time>2025-01-12T10:43:52Z</time>
      </trkpt>
      <trkpt lat="43.44054" lon="6.6254">
        <ele>53</ele>
        <time>2025-01-12T10:44:02Z</time>
      </trkpt>
      <trkpt lat="43.44057" lon="6.62522">
        <ele>50</ele>
        <time>2025-01-12T10:44:14Z</time>
      </trkpt>
      <trkpt lat="43.44059" lon="6.62517">
        <ele>47</ele>
        <time>2025-01-12T10:44:20Z</time>
      </trkpt>
      <trkpt lat="43.4406" lon="6.62505">
        <ele>47</ele>
        <time>2025-01-12T10:44:28Z</time>
      </trkpt>
      <trkpt lat="43.44065" lon="6.62489">
        <ele>48</ele>
        <time>2025-01-12T10:44:40Z</time>
      </trkpt>
      <trkpt lat="43.44067" lon="6.62482">
        <ele>49</ele>
        <time>2025-01-12T10:44:44Z</time>
      </trkpt>
      <trkpt lat="43.44075" lon="6.62456">
        <ele>46</ele>
        <time>2025-01-12T10:45:04Z</time>
      </trkpt>
      <trkpt lat="43.44077" lon="6.6245">
        <ele>46</ele>
        <time>2025-01-12T10:45:08Z</time>
      </trkpt>
      <trkpt lat="43.44077" lon="6.62441">
        <ele>46</ele>
        <time>2025-01-12T10:45:12Z</time>
      </trkpt>
      <trkpt lat="43.44079" lon="6.62436">
        <ele>46</ele>
        <time>2025-01-12T10:45:16Z</time>
      </trkpt>
      <trkpt lat="43.4408" lon="6.6243">
        <ele>45</ele>
        <time>2025-01-12T10:45:20Z</time>
      </trkpt>
      <trkpt lat="43.4408" lon="6.62418">
        <ele>43</ele>
        <time>2025-01-12T10:45:28Z</time>
      </trkpt>
      <trkpt lat="43.44085" lon="6.62395">
        <ele>42</ele>
        <time>2025-01-12T10:45:44Z</time>
      </trkpt>
      <trkpt lat="43.44085" lon="6.62384">
        <ele>40</ele>
        <time>2025-01-12T10:45:52Z</time>
      </trkpt>
      <trkpt lat="43.44085" lon="6.62379">
        <ele>40</ele>
        <time>2025-01-12T10:45:56Z</time>
      </trkpt>
      <trkpt lat="43.44083" lon="6.62374">
        <ele>39</ele>
        <time>2025-01-12T10:46:00Z</time>
      </trkpt>
      <trkpt lat="43.4408" lon="6.6237">
        <ele>37</ele>
        <time>2025-01-12T10:46:04Z</time>
      </trkpt>
      <trkpt lat="43.4407" lon="6.62361">
        <ele>35</ele>
        <time>2025-01-12T10:46:16Z</time>
      </trkpt>
      <trkpt lat="43.44045" lon="6.62346">
        <ele>34</ele>
        <time>2025-01-12T10:46:40Z</time>
      </trkpt>
      <trkpt lat="43.44033" lon="6.62337">
        <ele>36</ele>
        <time>2025-01-12T10:47:00Z</time>
      </trkpt>
      <trkpt lat="43.44029" lon="6.62337">
        <ele>35</ele>
        <time>2025-01-12T10:47:04Z</time>
      </trkpt>
      <trkpt lat="43.44017" lon="6.62329">
        <ele>35</ele>
        <time>2025-01-12T10:47:16Z</time>
      </trkpt>
      <trkpt lat="43.44009" lon="6.62326">
        <ele>34</ele>
        <time>2025-01-12T10:47:24Z</time>
      </trkpt>
      <trkpt lat="43.44005" lon="6.62326">
        <ele>34</ele>
        <time>2025-01-12T10:47:28Z</time>
      </trkpt>
      <trkpt lat="43.43997" lon="6.62321">
        <ele>33</ele>
        <time>2025-01-12T10:47:36Z</time>
      </trkpt>
      <trkpt lat="43.43993" lon="6.6232">
        <ele>33</ele>
        <time>2025-01-12T10:47:40Z</time>
      </trkpt>
      <trkpt lat="43.43979" lon="6.62324">
        <ele>32</ele>
        <time>2025-01-12T10:47:52Z</time>
      </trkpt>
      <trkpt lat="43.43971" lon="6.6233">
        <ele>31</ele>
        <time>2025-01-12T10:48:00Z</time>
      </trkpt>
      <trkpt lat="43.43962" lon="6.62331">
        <ele>31</ele>
        <time>2025-01-12T10:48:08Z</time>
      </trkpt>
      <trkpt lat="43.43958" lon="6.6233">
        <ele>31</ele>
        <time>2025-01-12T10:48:12Z</time>
      </trkpt>
      <trkpt lat="43.43945" lon="6.62318">
        <ele>30</ele>
        <time>2025-01-12T10:48:24Z</time>
      </trkpt>
      <trkpt lat="43.43941" lon="6.62316">
        <ele>29</ele>
        <time>2025-01-12T10:48:28Z</time>
      </trkpt>
      <trkpt lat="43.43933" lon="6.62314">
        <ele>29</ele>
        <time>2025-01-12T10:48:36Z</time>
      </trkpt>
      <trkpt lat="43.43912" lon="6.62321">
        <ele>27</ele>
        <time>2025-01-12T10:48:56Z</time>
      </trkpt>
      <trkpt lat="43.43908" lon="6.62321">
        <ele>27</ele>
        <time>2025-01-12T10:49:00Z</time>
      </trkpt>
      <trkpt lat="43.43903" lon="6.62318">
        <ele>27</ele>
        <time>2025-01-12T10:49:04Z</time>
      </trkpt>
      <trkpt lat="43.43901" lon="6.62313">
        <ele>27</ele>
        <time>2025-01-12T10:49:08Z</time>
      </trkpt>
      <trkpt lat="43.43899" lon="6.62307">
        <ele>29</ele>
        <time>2025-01-12T10:49:16Z</time>
      </trkpt>
      <trkpt lat="43.43896" lon="6.62304">
        <ele>29</ele>
        <time>2025-01-12T10:49:20Z</time>
      </trkpt>
      <trkpt lat="43.43888" lon="6.62302">
        <ele>29</ele>
        <time>2025-01-12T10:49:28Z</time>
      </trkpt>
      <trkpt lat="43.43884" lon="6.62303">
        <ele>28</ele>
        <time>2025-01-12T10:49:32Z</time>
      </trkpt>
      <trkpt lat="43.43878" lon="6.62305">
        <ele>26</ele>
        <time>2025-01-12T10:49:38Z</time>
      </trkpt>
      <trkpt lat="43.43876" lon="6.62301">
        <ele>25</ele>
        <time>2025-01-12T10:49:42Z</time>
      </trkpt>
      <trkpt lat="43.43866" lon="6.623">
        <ele>24</ele>
        <time>2025-01-12T10:49:52Z</time>
      </trkpt>
      <trkpt lat="43.43853" lon="6.62294">
        <ele>24</ele>
        <time>2025-01-12T10:50:04Z</time>
      </trkpt>
      <trkpt lat="43.43849" lon="6.62293">
        <ele>25</ele>
        <time>2025-01-12T10:50:08Z</time>
      </trkpt>
      <trkpt lat="43.43836" lon="6.62289">
        <ele>23</ele>
        <time>2025-01-12T10:50:22Z</time>
      </trkpt>
      <trkpt lat="43.43825" lon="6.62291">
        <ele>24</ele>
        <time>2025-01-12T10:50:34Z</time>
      </trkpt>
      <trkpt lat="43.43813" lon="6.62288">
        <ele>23</ele>
        <time>2025-01-12T10:50:46Z</time>
      </trkpt>
      <trkpt lat="43.43809" lon="6.62287">
        <ele>22</ele>
        <time>2025-01-12T10:50:50Z</time>
      </trkpt>
      <trkpt lat="43.43804" lon="6.62287">
        <ele>21</ele>
        <time>2025-01-12T10:50:56Z</time>
      </trkpt>
      <trkpt lat="43.438" lon="6.62287">
        <ele>19</ele>
        <time>2025-01-12T10:51:00Z</time>
      </trkpt>
      <trkpt lat="43.43784" lon="6.62284">
        <ele>20</ele>
        <time>2025-01-12T10:51:16Z</time>
      </trkpt>
      <trkpt lat="43.4377" lon="6.62281">
        <ele>20</ele>
        <time>2025-01-12T10:51:28Z</time>
      </trkpt>
      <trkpt lat="43.43766" lon="6.62281">
        <ele>20</ele>
        <time>2025-01-12T10:51:32Z</time>
      </trkpt>
      <trkpt lat="43.43759" lon="6.62277">
        <ele>20</ele>
        <time>2025-01-12T10:51:40Z</time>
      </trkpt>
      <trkpt lat="43.43755" lon="6.62275">
        <ele>20</ele>
        <time>2025-01-12T10:51:44Z</time>
      </trkpt>
      <trkpt lat="43.43751" lon="6.62274">
        <ele>19</ele>
        <time>2025-01-12T10:51:48Z</time>
      </trkpt>
      <trkpt lat="43.43748" lon="6.62272">
        <ele>20</ele>
        <time>2025-01-12T10:51:52Z</time>
      </trkpt>
      <trkpt lat="43.4374" lon="6.62266">
        <ele>17</ele>
        <time>2025-01-12T10:52:00Z</time>
      </trkpt>
      <trkpt lat="43.4372" lon="6.62263">
        <ele>19</ele>
        <time>2025-01-12T10:52:22Z</time>
      </trkpt>
      <trkpt lat="43.43711" lon="6.6226">
        <ele>18</ele>
        <time>2025-01-12T10:52:30Z</time>
      </trkpt>
      <trkpt lat="43.43694" lon="6.62252">
        <ele>16</ele>
        <time>2025-01-12T10:52:48Z</time>
      </trkpt>
      <trkpt lat="43.43685" lon="6.62247">
        <ele>16</ele>
        <time>2025-01-12T10:52:56Z</time>
      </trkpt>
      <trkpt lat="43.43675" lon="6.62242">
        <ele>16</ele>
        <time>2025-01-12T10:53:06Z</time>
      </trkpt>
      <trkpt lat="43.43656" lon="6.62229">
        <ele>16</ele>
        <time>2025-01-12T10:53:28Z</time>
      </trkpt>
      <trkpt lat="43.43646" lon="6.62226">
        <ele>20</ele>
        <time>2025-01-12T10:53:36Z</time>
      </trkpt>
      <trkpt lat="43.43628" lon="6.62233">
        <ele>23</ele>
        <time>2025-01-12T10:53:56Z</time>
      </trkpt>
      <trkpt lat="43.4361" lon="6.62235">
        <ele>25</ele>
        <time>2025-01-12T10:54:14Z</time>
      </trkpt>
      <trkpt lat="43.4361" lon="6.62239">
        <ele>27</ele>
        <time>2025-01-12T10:54:24Z</time>
      </trkpt>
      <trkpt lat="43.43604" lon="6.62243">
        <ele>26</ele>
        <time>2025-01-12T10:54:30Z</time>
      </trkpt>
      <trkpt lat="43.43572" lon="6.62254">
        <ele>30</ele>
        <time>2025-01-12T10:55:00Z</time>
      </trkpt>
      <trkpt lat="43.43548" lon="6.62268">
        <ele>29</ele>
        <time>2025-01-12T10:55:26Z</time>
      </trkpt>
      <trkpt lat="43.43533" lon="6.62282">
        <ele>30</ele>
        <time>2025-01-12T10:55:42Z</time>
      </trkpt>
      <trkpt lat="43.43529" lon="6.62286">
        <ele>30</ele>
        <time>2025-01-12T10:55:46Z</time>
      </trkpt>
      <trkpt lat="43.43494" lon="6.62303">
        <ele>31</ele>
        <time>2025-01-12T10:56:18Z</time>
      </trkpt>
      <trkpt lat="43.43486" lon="6.62307">
        <ele>30</ele>
        <time>2025-01-12T10:56:28Z</time>
      </trkpt>
      <trkpt lat="43.43482" lon="6.6231">
        <ele>30</ele>
        <time>2025-01-12T10:56:32Z</time>
      </trkpt>
      <trkpt lat="43.43466" lon="6.62319">
        <ele>29</ele>
        <time>2025-01-12T10:56:48Z</time>
      </trkpt>
      <trkpt lat="43.43462" lon="6.6232">
        <ele>29</ele>
        <time>2025-01-12T10:57:22Z</time>
      </trkpt>
      <trkpt lat="43.43452" lon="6.62328">
        <ele>30</ele>
        <time>2025-01-12T10:57:34Z</time>
      </trkpt>
      <trkpt lat="43.43436" lon="6.62338">
        <ele>30</ele>
        <time>2025-01-12T10:57:50Z</time>
      </trkpt>
      <trkpt lat="43.43425" lon="6.6235">
        <ele>31</ele>
        <time>2025-01-12T10:58:02Z</time>
      </trkpt>
      <trkpt lat="43.43423" lon="6.62355">
        <ele>32</ele>
        <time>2025-01-12T10:58:06Z</time>
      </trkpt>
      <trkpt lat="43.43418" lon="6.62366">
        <ele>34</ele>
        <time>2025-01-12T10:58:14Z</time>
      </trkpt>
      <trkpt lat="43.43414" lon="6.62368">
        <ele>35</ele>
        <time>2025-01-12T10:58:18Z</time>
      </trkpt>
      <trkpt lat="43.43411" lon="6.62369">
        <ele>35</ele>
        <time>2025-01-12T10:58:22Z</time>
      </trkpt>
      <trkpt lat="43.4341" lon="6.62363">
        <ele>35</ele>
        <time>2025-01-12T10:58:26Z</time>
      </trkpt>
      <trkpt lat="43.43411" lon="6.62333">
        <ele>33</ele>
        <time>2025-01-12T10:58:48Z</time>
      </trkpt>
      <trkpt lat="43.4341" lon="6.62327">
        <ele>32</ele>
        <time>2025-01-12T10:58:52Z</time>
      </trkpt>
      <trkpt lat="43.43408" lon="6.62322">
        <ele>32</ele>
        <time>2025-01-12T10:58:56Z</time>
      </trkpt>
      <trkpt lat="43.43403" lon="6.62317">
        <ele>32</ele>
        <time>2025-01-12T10:59:02Z</time>
      </trkpt>
      <trkpt lat="43.43399" lon="6.62314">
        <ele>32</ele>
        <time>2025-01-12T10:59:06Z</time>
      </trkpt>
      <trkpt lat="43.43395" lon="6.62312">
        <ele>32</ele>
        <time>2025-01-12T10:59:10Z</time>
      </trkpt>
      <trkpt lat="43.43369" lon="6.62305">
        <ele>30</ele>
        <time>2025-01-12T10:59:34Z</time>
      </trkpt>
      <trkpt lat="43.43338" lon="6.62283">
        <ele>31</ele>
        <time>2025-01-12T11:00:06Z</time>
      </trkpt>
      <trkpt lat="43.43334" lon="6.62282">
        <ele>30</ele>
        <time>2025-01-12T11:00:10Z</time>
      </trkpt>
      <trkpt lat="43.43325" lon="6.62283">
        <ele>30</ele>
        <time>2025-01-12T11:00:18Z</time>
      </trkpt>
      <trkpt lat="43.43315" lon="6.62293">
        <ele>29</ele>
        <time>2025-01-12T11:00:30Z</time>
      </trkpt>
      <trkpt lat="43.43311" lon="6.62295">
        <ele>27</ele>
        <time>2025-01-12T11:00:34Z</time>
      </trkpt>
      <trkpt lat="43.43307" lon="6.62292">
        <ele>26</ele>
        <time>2025-01-12T11:00:38Z</time>
      </trkpt>
      <trkpt lat="43.43307" lon="6.62287">
        <ele>27</ele>
        <time>2025-01-12T11:00:42Z</time>
      </trkpt>
      <trkpt lat="43.43307" lon="6.62279">
        <ele>28</ele>
        <time>2025-01-12T11:00:48Z</time>
      </trkpt>
      <trkpt lat="43.43301" lon="6.62268">
        <ele>32</ele>
        <time>2025-01-12T11:00:58Z</time>
      </trkpt>
      <trkpt lat="43.43298" lon="6.62264">
        <ele>32</ele>
        <time>2025-01-12T11:01:04Z</time>
      </trkpt>
      <trkpt lat="43.43295" lon="6.62263">
        <ele>32</ele>
        <time>2025-01-12T11:01:14Z</time>
      </trkpt>
      <trkpt lat="43.43291" lon="6.62263">
        <ele>32</ele>
        <time>2025-01-12T11:01:50Z</time>
      </trkpt>
      <trkpt lat="43.43284" lon="6.62267">
        <ele>32</ele>
        <time>2025-01-12T11:02:20Z</time>
      </trkpt>
      <trkpt lat="43.43272" lon="6.62282">
        <ele>35</ele>
        <time>2025-01-12T11:02:38Z</time>
      </trkpt>
      <trkpt lat="43.43268" lon="6.62282">
        <ele>34</ele>
        <time>2025-01-12T11:02:42Z</time>
      </trkpt>
      <trkpt lat="43.43264" lon="6.62279">
        <ele>34</ele>
        <time>2025-01-12T11:02:46Z</time>
      </trkpt>
      <trkpt lat="43.43263" lon="6.62273">
        <ele>34</ele>
        <time>2025-01-12T11:02:50Z</time>
      </trkpt>
      <trkpt lat="43.43259" lon="6.62268">
        <ele>35</ele>
        <time>2025-01-12T11:02:56Z</time>
      </trkpt>
      <trkpt lat="43.43251" lon="6.62262">
        <ele>35</ele>
        <time>2025-01-12T11:03:04Z</time>
      </trkpt>
      <trkpt lat="43.43246" lon="6.62261">
        <ele>35</ele>
        <time>2025-01-12T11:03:08Z</time>
      </trkpt>
      <trkpt lat="43.43241" lon="6.62258">
        <ele>36</ele>
        <time>2025-01-12T11:03:12Z</time>
      </trkpt>
      <trkpt lat="43.43225" lon="6.62259">
        <ele>34</ele>
        <time>2025-01-12T11:03:28Z</time>
      </trkpt>
      <trkpt lat="43.43217" lon="6.62257">
        <ele>34</ele>
        <time>2025-01-12T11:03:36Z</time>
      </trkpt>
      <trkpt lat="43.43188" lon="6.62251">
        <ele>33</ele>
        <time>2025-01-12T11:04:04Z</time>
      </trkpt>
      <trkpt lat="43.43185" lon="6.62251">
        <ele>33</ele>
        <time>2025-01-12T11:04:08Z</time>
      </trkpt>
      <trkpt lat="43.43183" lon="6.62247">
        <ele>36</ele>
        <time>2025-01-12T11:04:14Z</time>
      </trkpt>
      <trkpt lat="43.43169" lon="6.62229">
        <ele>40</ele>
        <time>2025-01-12T11:04:54Z</time>
      </trkpt>
      <trkpt lat="43.43161" lon="6.62223">
        <ele>37</ele>
        <time>2025-01-12T11:05:04Z</time>
      </trkpt>
      <trkpt lat="43.43131" lon="6.62221">
        <ele>30</ele>
        <time>2025-01-12T11:05:36Z</time>
      </trkpt>
      <trkpt lat="43.43121" lon="6.6222">
        <ele>35</ele>
        <time>2025-01-12T11:05:52Z</time>
      </trkpt>
      <trkpt lat="43.43112" lon="6.62224">
        <ele>37</ele>
        <time>2025-01-12T11:06:02Z</time>
      </trkpt>
      <trkpt lat="43.43103" lon="6.6223">
        <ele>37</ele>
        <time>2025-01-12T11:06:14Z</time>
      </trkpt>
      <trkpt lat="43.43095" lon="6.62236">
        <ele>41</ele>
        <time>2025-01-12T11:06:26Z</time>
      </trkpt>
      <trkpt lat="43.43086" lon="6.62237">
        <ele>41</ele>
        <time>2025-01-12T11:06:38Z</time>
      </trkpt>
      <trkpt lat="43.43077" lon="6.62239">
        <ele>43</ele>
        <time>2025-01-12T11:06:50Z</time>
      </trkpt>
      <trkpt lat="43.43068" lon="6.62241">
        <ele>46</ele>
        <time>2025-01-12T11:07:04Z</time>
      </trkpt>
      <trkpt lat="43.43037" lon="6.62242">
        <ele>51</ele>
        <time>2025-01-12T11:07:42Z</time>
      </trkpt>
      <trkpt lat="43.43028" lon="6.62244">
        <ele>52</ele>
        <time>2025-01-12T11:07:56Z</time>
      </trkpt>
      <trkpt lat="43.43017" lon="6.62242">
        <ele>55</ele>
        <time>2025-01-12T11:08:10Z</time>
      </trkpt>
      <trkpt lat="43.43008" lon="6.62244">
        <ele>55</ele>
        <time>2025-01-12T11:08:24Z</time>
      </trkpt>
      <trkpt lat="43.42998" lon="6.62245">
        <ele>57</ele>
        <time>2025-01-12T11:08:38Z</time>
      </trkpt>
      <trkpt lat="43.42988" lon="6.62246">
        <ele>57</ele>
        <time>2025-01-12T11:08:50Z</time>
      </trkpt>
      <trkpt lat="43.42978" lon="6.62243">
        <ele>60</ele>
        <time>2025-01-12T11:09:02Z</time>
      </trkpt>
      <trkpt lat="43.42971" lon="6.62237">
        <ele>65</ele>
        <time>2025-01-12T11:09:50Z</time>
      </trkpt>
      <trkpt lat="43.42968" lon="6.62235">
        <ele>65</ele>
        <time>2025-01-12T11:10:24Z</time>
      </trkpt>
      <trkpt lat="43.42961" lon="6.62238">
        <ele>67</ele>
        <time>2025-01-12T11:10:30Z</time>
      </trkpt>
      <trkpt lat="43.42957" lon="6.62234">
        <ele>69</ele>
        <time>2025-01-12T11:10:38Z</time>
      </trkpt>
      <trkpt lat="43.42949" lon="6.62233">
        <ele>69</ele>
        <time>2025-01-12T11:10:46Z</time>
      </trkpt>
      <trkpt lat="43.42945" lon="6.62231">
        <ele>67</ele>
        <time>2025-01-12T11:10:52Z</time>
      </trkpt>
      <trkpt lat="43.4294" lon="6.62229">
        <ele>67</ele>
        <time>2025-01-12T11:10:56Z</time>
      </trkpt>
      <trkpt lat="43.42924" lon="6.62222">
        <ele>69</ele>
        <time>2025-01-12T11:11:14Z</time>
      </trkpt>
      <trkpt lat="43.42915" lon="6.62216">
        <ele>67</ele>
        <time>2025-01-12T11:11:26Z</time>
      </trkpt>
      <trkpt lat="43.42905" lon="6.62213">
        <ele>68</ele>
        <time>2025-01-12T11:11:38Z</time>
      </trkpt>
      <trkpt lat="43.42888" lon="6.62202">
        <ele>68</ele>
        <time>2025-01-12T11:12:04Z</time>
      </trkpt>
      <trkpt lat="43.4288" lon="6.62193">
        <ele>71</ele>
        <time>2025-01-12T11:12:16Z</time>
      </trkpt>
      <trkpt lat="43.42872" lon="6.62187">
        <ele>73</ele>
        <time>2025-01-12T11:12:28Z</time>
      </trkpt>
      <trkpt lat="43.42865" lon="6.62179">
        <ele>78</ele>
        <time>2025-01-12T11:12:40Z</time>
      </trkpt>
      <trkpt lat="43.4284" lon="6.62162">
        <ele>82</ele>
        <time>2025-01-12T11:13:20Z</time>
      </trkpt>
      <trkpt lat="43.42822" lon="6.62156">
        <ele>85</ele>
        <time>2025-01-12T11:13:44Z</time>
      </trkpt>
      <trkpt lat="43.42811" lon="6.62152">
        <ele>85</ele>
        <time>2025-01-12T11:13:54Z</time>
      </trkpt>
      <trkpt lat="43.42801" lon="6.62151">
        <ele>87</ele>
        <time>2025-01-12T11:14:08Z</time>
      </trkpt>
      <trkpt lat="43.42781" lon="6.62145">
        <ele>91</ele>
        <time>2025-01-12T11:14:34Z</time>
      </trkpt>
      <trkpt lat="43.42753" lon="6.62132">
        <ele>95</ele>
        <time>2025-01-12T11:15:12Z</time>
      </trkpt>
      <trkpt lat="43.4275" lon="6.62131">
        <ele>97</ele>
        <time>2025-01-12T11:15:18Z</time>
      </trkpt>
      <trkpt lat="43.42745" lon="6.6213">
        <ele>97</ele>
        <time>2025-01-12T11:15:24Z</time>
      </trkpt>
      <trkpt lat="43.42746" lon="6.62136">
        <ele>96</ele>
        <time>2025-01-12T11:15:30Z</time>
      </trkpt>
      <trkpt lat="43.42741" lon="6.62139">
        <ele>99</ele>
        <time>2025-01-12T11:18:52Z</time>
      </trkpt>
      <trkpt lat="43.42738" lon="6.62133">
        <ele>101</ele>
        <time>2025-01-12T11:18:56Z</time>
      </trkpt>
      <trkpt lat="43.42728" lon="6.62133">
        <ele>106</ele>
        <time>2025-01-12T11:19:08Z</time>
      </trkpt>
      <trkpt lat="43.4272" lon="6.62136">
        <ele>103</ele>
        <time>2025-01-12T11:19:20Z</time>
      </trkpt>
      <trkpt lat="43.42713" lon="6.62139">
        <ele>105</ele>
        <time>2025-01-12T11:19:32Z</time>
      </trkpt>
      <trkpt lat="43.42704" lon="6.6214">
        <ele>106</ele>
        <time>2025-01-12T11:19:44Z</time>
      </trkpt>
      <trkpt lat="43.42701" lon="6.62139">
        <ele>106</ele>
        <time>2025-01-12T11:19:48Z</time>
      </trkpt>
      <trkpt lat="43.42697" lon="6.62138">
        <ele>107</ele>
        <time>2025-01-12T11:19:52Z</time>
      </trkpt>
      <trkpt lat="43.42693" lon="6.6214">
        <ele>109</ele>
        <time>2025-01-12T11:19:58Z</time>
      </trkpt>
      <trkpt lat="43.42689" lon="6.62138">
        <ele>110</ele>
        <time>2025-01-12T11:20:04Z</time>
      </trkpt>
      <trkpt lat="43.42686" lon="6.62138">
        <ele>110</ele>
        <time>2025-01-12T11:20:10Z</time>
      </trkpt>
      <trkpt lat="43.42682" lon="6.62135">
        <ele>112</ele>
        <time>2025-01-12T11:20:16Z</time>
      </trkpt>
      <trkpt lat="43.42678" lon="6.62125">
        <ele>113</ele>
        <time>2025-01-12T11:20:28Z</time>
      </trkpt>
      <trkpt lat="43.42676" lon="6.6212">
        <ele>116</ele>
        <time>2025-01-12T11:20:34Z</time>
      </trkpt>
      <trkpt lat="43.42673" lon="6.62116">
        <ele>117</ele>
        <time>2025-01-12T11:20:40Z</time>
      </trkpt>
      <trkpt lat="43.42666" lon="6.62108">
        <ele>119</ele>
        <time>2025-01-12T11:20:52Z</time>
      </trkpt>
      <trkpt lat="43.42657" lon="6.62108">
        <ele>117</ele>
        <time>2025-01-12T11:21:02Z</time>
      </trkpt>
      <trkpt lat="43.42652" lon="6.62106">
        <ele>117</ele>
        <time>2025-01-12T11:21:08Z</time>
      </trkpt>
      <trkpt lat="43.42647" lon="6.62105">
        <ele>118</ele>
        <time>2025-01-12T11:21:12Z</time>
      </trkpt>
      <trkpt lat="43.42638" lon="6.62104">
        <ele>120</ele>
        <time>2025-01-12T11:21:24Z</time>
      </trkpt>
      <trkpt lat="43.4263" lon="6.62108">
        <ele>123</ele>
        <time>2025-01-12T11:21:36Z</time>
      </trkpt>
      <trkpt lat="43.42631" lon="6.62113">
        <ele>123</ele>
        <time>2025-01-12T11:21:50Z</time>
      </trkpt>
      <trkpt lat="43.42635" lon="6.62115">
        <ele>125</ele>
        <time>2025-01-12T11:21:58Z</time>
      </trkpt>
      <trkpt lat="43.42653" lon="6.62132">
        <ele>124</ele>
        <time>2025-01-12T11:22:28Z</time>
      </trkpt>
      <trkpt lat="43.42658" lon="6.62141">
        <ele>124</ele>
        <time>2025-01-12T11:22:36Z</time>
      </trkpt>
      <trkpt lat="43.42663" lon="6.62159">
        <ele>124</ele>
        <time>2025-01-12T11:22:50Z</time>
      </trkpt>
      <trkpt lat="43.42687" lon="6.62173">
        <ele>122</ele>
        <time>2025-01-12T11:23:16Z</time>
      </trkpt>
      <trkpt lat="43.42687" lon="6.62175">
        <ele>116</ele>
        <time>2025-01-12T11:23:28Z</time>
      </trkpt>
      <trkpt lat="43.42715" lon="6.62184">
        <ele>119</ele>
        <time>2025-01-12T11:23:58Z</time>
      </trkpt>
      <trkpt lat="43.42745" lon="6.622">
        <ele>120</ele>
        <time>2025-01-12T11:24:30Z</time>
      </trkpt>
      <trkpt lat="43.42755" lon="6.62207">
        <ele>123</ele>
        <time>2025-01-12T11:24:40Z</time>
      </trkpt>
      <trkpt lat="43.42763" lon="6.62213">
        <ele>124</ele>
        <time>2025-01-12T11:24:50Z</time>
      </trkpt>
      <trkpt lat="43.42789" lon="6.62233">
        <ele>123</ele>
        <time>2025-01-12T11:25:22Z</time>
      </trkpt>
      <trkpt lat="43.42805" lon="6.62248">
        <ele>122</ele>
        <time>2025-01-12T11:25:44Z</time>
      </trkpt>
      <trkpt lat="43.4283" lon="6.62266">
        <ele>125</ele>
        <time>2025-01-12T11:26:14Z</time>
      </trkpt>
      <trkpt lat="43.42838" lon="6.62275">
        <ele>124</ele>
        <time>2025-01-12T11:26:24Z</time>
      </trkpt>
      <trkpt lat="43.42847" lon="6.6228">
        <ele>125</ele>
        <time>2025-01-12T11:26:36Z</time>
      </trkpt>
      <trkpt lat="43.42851" lon="6.62282">
        <ele>123</ele>
        <time>2025-01-12T11:27:02Z</time>
      </trkpt>
      <trkpt lat="43.42859" lon="6.62291">
        <ele>120</ele>
        <time>2025-01-12T11:27:14Z</time>
      </trkpt>
      <trkpt lat="43.42874" lon="6.62297">
        <ele>123</ele>
        <time>2025-01-12T11:27:30Z</time>
      </trkpt>
      <trkpt lat="43.42892" lon="6.62315">
        <ele>122</ele>
        <time>2025-01-12T11:27:54Z</time>
      </trkpt>
      <trkpt lat="43.42896" lon="6.62318">
        <ele>123</ele>
        <time>2025-01-12T11:27:58Z</time>
      </trkpt>
      <trkpt lat="43.42901" lon="6.62325">
        <ele>121</ele>
        <time>2025-01-12T11:28:06Z</time>
      </trkpt>
      <trkpt lat="43.42908" lon="6.62333">
        <ele>119</ele>
        <time>2025-01-12T11:28:16Z</time>
      </trkpt>
      <trkpt lat="43.42916" lon="6.62343">
        <ele>117</ele>
        <time>2025-01-12T11:28:28Z</time>
      </trkpt>
      <trkpt lat="43.4293" lon="6.62361">
        <ele>117</ele>
        <time>2025-01-12T11:28:48Z</time>
      </trkpt>
      <trkpt lat="43.42938" lon="6.62368">
        <ele>115</ele>
        <time>2025-01-12T11:28:58Z</time>
      </trkpt>
      <trkpt lat="43.42947" lon="6.62373">
        <ele>114</ele>
        <time>2025-01-12T11:29:08Z</time>
      </trkpt>
      <trkpt lat="43.42967" lon="6.62377">
        <ele>113</ele>
        <time>2025-01-12T11:29:28Z</time>
      </trkpt>
      <trkpt lat="43.42977" lon="6.62381">
        <ele>113</ele>
        <time>2025-01-12T11:29:38Z</time>
      </trkpt>
      <trkpt lat="43.42987" lon="6.62385">
        <ele>112</ele>
        <time>2025-01-12T11:29:50Z</time>
      </trkpt>
      <trkpt lat="43.42997" lon="6.62388">
        <ele>112</ele>
        <time>2025-01-12T11:30:00Z</time>
      </trkpt>
      <trkpt lat="43.43026" lon="6.62391">
        <ele>113</ele>
        <time>2025-01-12T11:30:32Z</time>
      </trkpt>
      <trkpt lat="43.43055" lon="6.62405">
        <ele>112</ele>
        <time>2025-01-12T11:31:06Z</time>
      </trkpt>
      <trkpt lat="43.43085" lon="6.62407">
        <ele>113</ele>
        <time>2025-01-12T11:31:38Z</time>
      </trkpt>
      <trkpt lat="43.43094" lon="6.62408">
        <ele>113</ele>
        <time>2025-01-12T11:31:48Z</time>
      </trkpt>
      <trkpt lat="43.43104" lon="6.62411">
        <ele>116</ele>
        <time>2025-01-12T11:32:06Z</time>
      </trkpt>
      <trkpt lat="43.43122" lon="6.62418">
        <ele>113</ele>
        <time>2025-01-12T11:32:32Z</time>
      </trkpt>
      <trkpt lat="43.43132" lon="6.62425">
        <ele>112</ele>
        <time>2025-01-12T11:32:46Z</time>
      </trkpt>
      <trkpt lat="43.43135" lon="6.62439">
        <ele>112</ele>
        <time>2025-01-12T11:33:00Z</time>
      </trkpt>
      <trkpt lat="43.4314" lon="6.62451">
        <ele>109</ele>
        <time>2025-01-12T11:33:16Z</time>
      </trkpt>
      <trkpt lat="43.43148" lon="6.62457">
        <ele>108</ele>
        <time>2025-01-12T11:33:30Z</time>
      </trkpt>
      <trkpt lat="43.43157" lon="6.62463">
        <ele>106</ele>
        <time>2025-01-12T11:33:42Z</time>
      </trkpt>
      <trkpt lat="43.43166" lon="6.6247">
        <ele>106</ele>
        <time>2025-01-12T11:33:54Z</time>
      </trkpt>
      <trkpt lat="43.43175" lon="6.62474">
        <ele>107</ele>
        <time>2025-01-12T11:34:04Z</time>
      </trkpt>
      <trkpt lat="43.43204" lon="6.62473">
        <ele>106</ele>
        <time>2025-01-12T11:34:36Z</time>
      </trkpt>
      <trkpt lat="43.43213" lon="6.62477">
        <ele>102</ele>
        <time>2025-01-12T11:34:48Z</time>
      </trkpt>
      <trkpt lat="43.43221" lon="6.62486">
        <ele>99</ele>
        <time>2025-01-12T11:35:02Z</time>
      </trkpt>
      <trkpt lat="43.43216" lon="6.62524">
        <ele>95</ele>
        <time>2025-01-12T11:35:40Z</time>
      </trkpt>
      <trkpt lat="43.43212" lon="6.62537">
        <ele>91</ele>
        <time>2025-01-12T11:35:58Z</time>
      </trkpt>
      <trkpt lat="43.43213" lon="6.62551">
        <ele>91</ele>
        <time>2025-01-12T11:36:10Z</time>
      </trkpt>
      <trkpt lat="43.43226" lon="6.62588">
        <ele>92</ele>
        <time>2025-01-12T11:36:42Z</time>
      </trkpt>
      <trkpt lat="43.4323" lon="6.62599">
        <ele>90</ele>
        <time>2025-01-12T11:36:52Z</time>
      </trkpt>
      <trkpt lat="43.43237" lon="6.62611">
        <ele>87</ele>
        <time>2025-01-12T11:37:04Z</time>
      </trkpt>
      <trkpt lat="43.43243" lon="6.62623">
        <ele>85</ele>
        <time>2025-01-12T11:37:18Z</time>
      </trkpt>
      <trkpt lat="43.43254" lon="6.62624">
        <ele>85</ele>
        <time>2025-01-12T11:37:30Z</time>
      </trkpt>
      <trkpt lat="43.43258" lon="6.62618">
        <ele>86</ele>
        <time>2025-01-12T11:37:38Z</time>
      </trkpt>
      <trkpt lat="43.4326" lon="6.62612">
        <ele>86</ele>
        <time>2025-01-12T11:37:44Z</time>
      </trkpt>
      <trkpt lat="43.43264" lon="6.62603">
        <ele>86</ele>
        <time>2025-01-12T11:37:56Z</time>
      </trkpt>
      <trkpt lat="43.43268" lon="6.62601">
        <ele>84</ele>
        <time>2025-01-12T11:38:04Z</time>
      </trkpt>
      <trkpt lat="43.43271" lon="6.626">
        <ele>83</ele>
        <time>2025-01-12T11:38:12Z</time>
      </trkpt>
      <trkpt lat="43.43278" lon="6.62592">
        <ele>82</ele>
        <time>2025-01-12T11:38:26Z</time>
      </trkpt>
      <trkpt lat="43.43282" lon="6.62591">
        <ele>82</ele>
        <time>2025-01-12T11:38:34Z</time>
      </trkpt>
      <trkpt lat="43.43286" lon="6.62593">
        <ele>81</ele>
        <time>2025-01-12T11:38:44Z</time>
      </trkpt>
      <trkpt lat="43.43287" lon="6.62597">
        <ele>81</ele>
        <time>2025-01-12T11:38:56Z</time>
      </trkpt>
      <trkpt lat="43.43296" lon="6.626">
        <ele>80</ele>
        <time>2025-01-12T11:39:20Z</time>
      </trkpt>
      <trkpt lat="43.43305" lon="6.62609">
        <ele>77</ele>
        <time>2025-01-12T11:39:36Z</time>
      </trkpt>
      <trkpt lat="43.43312" lon="6.62619">
        <ele>75</ele>
        <time>2025-01-12T11:39:50Z</time>
      </trkpt>
      <trkpt lat="43.43314" lon="6.62631">
        <ele>71</ele>
        <time>2025-01-12T11:40:02Z</time>
      </trkpt>
      <trkpt lat="43.43316" lon="6.62644">
        <ele>69</ele>
        <time>2025-01-12T11:40:14Z</time>
      </trkpt>
      <trkpt lat="43.43326" lon="6.62669">
        <ele>66</ele>
        <time>2025-01-12T11:40:38Z</time>
      </trkpt>
      <trkpt lat="43.43333" lon="6.62678">
        <ele>65</ele>
        <time>2025-01-12T11:40:50Z</time>
      </trkpt>
      <trkpt lat="43.43336" lon="6.6269">
        <ele>65</ele>
        <time>2025-01-12T11:41:14Z</time>
      </trkpt>
      <trkpt lat="43.43335" lon="6.62703">
        <ele>63</ele>
        <time>2025-01-12T11:41:28Z</time>
      </trkpt>
      <trkpt lat="43.43339" lon="6.62716">
        <ele>58</ele>
        <time>2025-01-12T11:41:40Z</time>
      </trkpt>
      <trkpt lat="43.43343" lon="6.62728">
        <ele>58</ele>
        <time>2025-01-12T11:41:52Z</time>
      </trkpt>
      <trkpt lat="43.43352" lon="6.62733">
        <ele>59</ele>
        <time>2025-01-12T11:42:04Z</time>
      </trkpt>
      <trkpt lat="43.43359" lon="6.62771">
        <ele>55</ele>
        <time>2025-01-12T11:42:44Z</time>
      </trkpt>
      <trkpt lat="43.4336" lon="6.62798">
        <ele>54</ele>
        <time>2025-01-12T11:43:14Z</time>
      </trkpt>
      <trkpt lat="43.43366" lon="6.62809">
        <ele>54</ele>
        <time>2025-01-12T11:43:28Z</time>
      </trkpt>
      <trkpt lat="43.43372" lon="6.62818">
        <ele>49</ele>
        <time>2025-01-12T11:43:46Z</time>
      </trkpt>
      <trkpt lat="43.43378" lon="6.62828">
        <ele>41</ele>
        <time>2025-01-12T11:44:08Z</time>
      </trkpt>
      <trkpt lat="43.4338" lon="6.62841">
        <ele>39</ele>
        <time>2025-01-12T11:44:24Z</time>
      </trkpt>
      <trkpt lat="43.43383" lon="6.62853">
        <ele>43</ele>
        <time>2025-01-12T11:44:38Z</time>
      </trkpt>
      <trkpt lat="43.43387" lon="6.62864">
        <ele>41</ele>
        <time>2025-01-12T11:45:22Z</time>
      </trkpt>
      <trkpt lat="43.43385" lon="6.62876">
        <ele>41</ele>
        <time>2025-01-12T11:45:34Z</time>
      </trkpt>
      <trkpt lat="43.4337" lon="6.62894">
        <ele>43</ele>
        <time>2025-01-12T11:46:02Z</time>
      </trkpt>
      <trkpt lat="43.43372" lon="6.62908">
        <ele>43</ele>
        <time>2025-01-12T11:46:48Z</time>
      </trkpt>
      <trkpt lat="43.43367" lon="6.62919">
        <ele>43</ele>
        <time>2025-01-12T11:47:34Z</time>
      </trkpt>
      <trkpt lat="43.43361" lon="6.62931">
        <ele>47</ele>
        <time>2025-01-12T11:48:08Z</time>
      </trkpt>
      <trkpt lat="43.4336" lon="6.62957">
        <ele>48</ele>
        <time>2025-01-12T11:48:36Z</time>
      </trkpt>
      <trkpt lat="43.4336" lon="6.6297">
        <ele>51</ele>
        <time>2025-01-12T11:48:50Z</time>
      </trkpt>
      <trkpt lat="43.43358" lon="6.62983">
        <ele>52</ele>
        <time>2025-01-12T11:49:02Z</time>
      </trkpt>
      <trkpt lat="43.43357" lon="6.63009">
        <ele>55</ele>
        <time>2025-01-12T11:49:28Z</time>
      </trkpt>
      <trkpt lat="43.43356" lon="6.63023">
        <ele>53</ele>
        <time>2025-01-12T11:49:40Z</time>
      </trkpt>
      <trkpt lat="43.43358" lon="6.63036">
        <ele>52</ele>
        <time>2025-01-12T11:49:52Z</time>
      </trkpt>
      <trkpt lat="43.4336" lon="6.63048">
        <ele>52</ele>
        <time>2025-01-12T11:50:04Z</time>
      </trkpt>
      <trkpt lat="43.43356" lon="6.6306">
        <ele>53</ele>
        <time>2025-01-12T11:50:28Z</time>
      </trkpt>
      <trkpt lat="43.43358" lon="6.63074">
        <ele>55</ele>
        <time>2025-01-12T11:50:40Z</time>
      </trkpt>
      <trkpt lat="43.43364" lon="6.63086">
        <ele>59</ele>
        <time>2025-01-12T11:50:54Z</time>
      </trkpt>
      <trkpt lat="43.43356" lon="6.63097">
        <ele>57</ele>
        <time>2025-01-12T11:51:06Z</time>
      </trkpt>
      <trkpt lat="43.43348" lon="6.63105">
        <ele>57</ele>
        <time>2025-01-12T11:51:16Z</time>
      </trkpt>
      <trkpt lat="43.43344" lon="6.63117">
        <ele>52</ele>
        <time>2025-01-12T11:51:34Z</time>
      </trkpt>
      <trkpt lat="43.43351" lon="6.63128">
        <ele>58</ele>
        <time>2025-01-12T11:51:44Z</time>
      </trkpt>
      <trkpt lat="43.43354" lon="6.6314">
        <ele>63</ele>
        <time>2025-01-12T11:51:58Z</time>
      </trkpt>
      <trkpt lat="43.43359" lon="6.63167">
        <ele>61</ele>
        <time>2025-01-12T11:52:24Z</time>
      </trkpt>
      <trkpt lat="43.43356" lon="6.63194">
        <ele>64</ele>
        <time>2025-01-12T11:52:50Z</time>
      </trkpt>
      <trkpt lat="43.43355" lon="6.63207">
        <ele>65</ele>
        <time>2025-01-12T11:53:04Z</time>
      </trkpt>
      <trkpt lat="43.4335" lon="6.63232">
        <ele>67</ele>
        <time>2025-01-12T11:53:34Z</time>
      </trkpt>
      <trkpt lat="43.43351" lon="6.63244">
        <ele>67</ele>
        <time>2025-01-12T11:53:48Z</time>
      </trkpt>
      <trkpt lat="43.43357" lon="6.63268">
        <ele>69</ele>
        <time>2025-01-12T11:54:20Z</time>
      </trkpt>
      <trkpt lat="43.43361" lon="6.6328">
        <ele>72</ele>
        <time>2025-01-12T11:55:14Z</time>
      </trkpt>
      <trkpt lat="43.43362" lon="6.63294">
        <ele>75</ele>
        <time>2025-01-12T11:55:32Z</time>
      </trkpt>
      <trkpt lat="43.43366" lon="6.63307">
        <ele>77</ele>
        <time>2025-01-12T11:55:48Z</time>
      </trkpt>
      <trkpt lat="43.43369" lon="6.63319">
        <ele>78</ele>
        <time>2025-01-12T11:56:06Z</time>
      </trkpt>
      <trkpt lat="43.43368" lon="6.63319">
        <ele>83</ele>
        <time>2025-01-12T12:19:15Z</time>
      </trkpt>
      <trkpt lat="43.43368" lon="6.63319">
        <ele>83</ele>
        <time>2025-01-12T12:19:19Z</time>
      </trkpt>
      <trkpt lat="43.43367" lon="6.63332">
        <ele>83</ele>
        <time>2025-01-12T12:19:53Z</time>
      </trkpt>
      <trkpt lat="43.43368" lon="6.63345">
        <ele>85</ele>
        <time>2025-01-12T12:20:09Z</time>
      </trkpt>
      <trkpt lat="43.43373" lon="6.63356">
        <ele>87</ele>
        <time>2025-01-12T12:20:35Z</time>
      </trkpt>
      <trkpt lat="43.43379" lon="6.63367">
        <ele>88</ele>
        <time>2025-01-12T12:20:57Z</time>
      </trkpt>
      <trkpt lat="43.43382" lon="6.63379">
        <ele>90</ele>
        <time>2025-01-12T12:21:27Z</time>
      </trkpt>
      <trkpt lat="43.43382" lon="6.63385">
        <ele>92</ele>
        <time>2025-01-12T12:21:35Z</time>
      </trkpt>
      <trkpt lat="43.43379" lon="6.63395">
        <ele>90</ele>
        <time>2025-01-12T12:21:51Z</time>
      </trkpt>
      <trkpt lat="43.4338" lon="6.63399">
        <ele>92</ele>
        <time>2025-01-12T12:21:57Z</time>
      </trkpt>
      <trkpt lat="43.43376" lon="6.63399">
        <ele>89</ele>
        <time>2025-01-12T12:22:17Z</time>
      </trkpt>
      <trkpt lat="43.43379" lon="6.634">
        <ele>90</ele>
        <time>2025-01-12T12:23:29Z</time>
      </trkpt>
      <trkpt lat="43.43388" lon="6.63404">
        <ele>91</ele>
        <time>2025-01-12T12:23:45Z</time>
      </trkpt>
      <trkpt lat="43.43383" lon="6.63403">
        <ele>91</ele>
        <time>2025-01-12T12:24:03Z</time>
      </trkpt>
      <trkpt lat="43.43379" lon="6.634">
        <ele>92</ele>
        <time>2025-01-12T12:24:09Z</time>
      </trkpt>
      <trkpt lat="43.4338" lon="6.63395">
        <ele>91</ele>
        <time>2025-01-12T12:24:15Z</time>
      </trkpt>
      <trkpt lat="43.43383" lon="6.63391">
        <ele>92</ele>
        <time>2025-01-12T12:24:33Z</time>
      </trkpt>
      <trkpt lat="43.43384" lon="6.63383">
        <ele>92</ele>
        <time>2025-01-12T12:24:41Z</time>
      </trkpt>
      <trkpt lat="43.43385" lon="6.63378">
        <ele>92</ele>
        <time>2025-01-12T12:24:49Z</time>
      </trkpt>
      <trkpt lat="43.43382" lon="6.63373">
        <ele>90</ele>
        <time>2025-01-12T12:24:55Z</time>
      </trkpt>
      <trkpt lat="43.43382" lon="6.63367">
        <ele>89</ele>
        <time>2025-01-12T12:25:01Z</time>
      </trkpt>
      <trkpt lat="43.43382" lon="6.63362">
        <ele>89</ele>
        <time>2025-01-12T12:25:07Z</time>
      </trkpt>
      <trkpt lat="43.43382" lon="6.63361">
        <ele>93</ele>
        <time>2025-01-12T12:25:39Z</time>
      </trkpt>
      <trkpt lat="43.43379" lon="6.63394">
        <ele>96</ele>
        <time>2025-01-12T12:26:05Z</time>
      </trkpt>
      <trkpt lat="43.43382" lon="6.63396">
        <ele>93</ele>
        <time>2025-01-12T12:26:13Z</time>
      </trkpt>
      <trkpt lat="43.43386" lon="6.63399">
        <ele>91</ele>
        <time>2025-01-12T12:26:21Z</time>
      </trkpt>
      <trkpt lat="43.4339" lon="6.63396">
        <ele>90</ele>
        <time>2025-01-12T12:26:29Z</time>
      </trkpt>
      <trkpt lat="43.43396" lon="6.63397">
        <ele>90</ele>
        <time>2025-01-12T12:26:37Z</time>
      </trkpt>
      <trkpt lat="43.434" lon="6.63396">
        <ele>90</ele>
        <time>2025-01-12T12:26:41Z</time>
      </trkpt>
      <trkpt lat="43.43406" lon="6.63396">
        <ele>91</ele>
        <time>2025-01-12T12:26:47Z</time>
      </trkpt>
      <trkpt lat="43.43414" lon="6.63393">
        <ele>92</ele>
        <time>2025-01-12T12:26:59Z</time>
      </trkpt>
      <trkpt lat="43.43419" lon="6.63394">
        <ele>87</ele>
        <time>2025-01-12T12:27:51Z</time>
      </trkpt>
      <trkpt lat="43.43422" lon="6.63397">
        <ele>85</ele>
        <time>2025-01-12T12:27:57Z</time>
      </trkpt>
      <trkpt lat="43.43424" lon="6.63401">
        <ele>85</ele>
        <time>2025-01-12T12:28:01Z</time>
      </trkpt>
      <trkpt lat="43.43428" lon="6.63406">
        <ele>82</ele>
        <time>2025-01-12T12:28:09Z</time>
      </trkpt>
      <trkpt lat="43.43431" lon="6.63409">
        <ele>82</ele>
        <time>2025-01-12T12:28:13Z</time>
      </trkpt>
      <trkpt lat="43.43429" lon="6.63418">
        <ele>83</ele>
        <time>2025-01-12T12:28:21Z</time>
      </trkpt>
      <trkpt lat="43.43429" lon="6.63425">
        <ele>83</ele>
        <time>2025-01-12T12:28:27Z</time>
      </trkpt>
      <trkpt lat="43.43432" lon="6.63429">
        <ele>83</ele>
        <time>2025-01-12T12:28:37Z</time>
      </trkpt>
      <trkpt lat="43.43438" lon="6.63436">
        <ele>85</ele>
        <time>2025-01-12T12:29:51Z</time>
      </trkpt>
      <trkpt lat="43.43435" lon="6.63441">
        <ele>85</ele>
        <time>2025-01-12T12:31:39Z</time>
      </trkpt>
      <trkpt lat="43.43436" lon="6.63446">
        <ele>87</ele>
        <time>2025-01-12T12:31:43Z</time>
      </trkpt>
      <trkpt lat="43.43432" lon="6.63449">
        <ele>88</ele>
        <time>2025-01-12T12:31:47Z</time>
      </trkpt>
      <trkpt lat="43.43433" lon="6.63456">
        <ele>90</ele>
        <time>2025-01-12T12:31:51Z</time>
      </trkpt>
      <trkpt lat="43.43434" lon="6.6346">
        <ele>90</ele>
        <time>2025-01-12T12:31:55Z</time>
      </trkpt>
      <trkpt lat="43.43437" lon="6.63463">
        <ele>89</ele>
        <time>2025-01-12T12:31:59Z</time>
      </trkpt>
      <trkpt lat="43.43438" lon="6.63459">
        <ele>84</ele>
        <time>2025-01-12T12:32:35Z</time>
      </trkpt>
      <trkpt lat="43.4344" lon="6.63454">
        <ele>82</ele>
        <time>2025-01-12T12:33:19Z</time>
      </trkpt>
      <trkpt lat="43.4344" lon="6.63448">
        <ele>81</ele>
        <time>2025-01-12T12:33:25Z</time>
      </trkpt>
      <trkpt lat="43.43443" lon="6.63442">
        <ele>79</ele>
        <time>2025-01-12T12:33:33Z</time>
      </trkpt>
      <trkpt lat="43.4344" lon="6.63429">
        <ele>78</ele>
        <time>2025-01-12T12:33:43Z</time>
      </trkpt>
      <trkpt lat="43.43435" lon="6.63413">
        <ele>77</ele>
        <time>2025-01-12T12:33:57Z</time>
      </trkpt>
      <trkpt lat="43.4343" lon="6.63399">
        <ele>78</ele>
        <time>2025-01-12T12:34:11Z</time>
      </trkpt>
      <trkpt lat="43.43427" lon="6.63395">
        <ele>78</ele>
        <time>2025-01-12T12:34:15Z</time>
      </trkpt>
      <trkpt lat="43.43425" lon="6.63391">
        <ele>79</ele>
        <time>2025-01-12T12:34:19Z</time>
      </trkpt>
      <trkpt lat="43.43421" lon="6.63386">
        <ele>80</ele>
        <time>2025-01-12T12:34:41Z</time>
      </trkpt>
      <trkpt lat="43.43414" lon="6.63364">
        <ele>80</ele>
        <time>2025-01-12T12:35:11Z</time>
      </trkpt>
      <trkpt lat="43.43413" lon="6.63359">
        <ele>81</ele>
        <time>2025-01-12T12:35:17Z</time>
      </trkpt>
      <trkpt lat="43.43411" lon="6.63353">
        <ele>83</ele>
        <time>2025-01-12T12:35:23Z</time>
      </trkpt>
      <trkpt lat="43.43416" lon="6.63314">
        <ele>89</ele>
        <time>2025-01-12T12:35:59Z</time>
      </trkpt>
      <trkpt lat="43.43416" lon="6.63302">
        <ele>91</ele>
        <time>2025-01-12T12:36:05Z</time>
      </trkpt>
      <trkpt lat="43.43419" lon="6.6329">
        <ele>91</ele>
        <time>2025-01-12T12:36:19Z</time>
      </trkpt>
      <trkpt lat="43.43425" lon="6.63281">
        <ele>92</ele>
        <time>2025-01-12T12:36:31Z</time>
      </trkpt>
      <trkpt lat="43.43429" lon="6.63269">
        <ele>95</ele>
        <time>2025-01-12T12:36:43Z</time>
      </trkpt>
      <trkpt lat="43.43435" lon="6.63258">
        <ele>96</ele>
        <time>2025-01-12T12:36:57Z</time>
      </trkpt>
      <trkpt lat="43.4344" lon="6.63248">
        <ele>98</ele>
        <time>2025-01-12T12:37:15Z</time>
      </trkpt>
      <trkpt lat="43.43445" lon="6.63238">
        <ele>101</ele>
        <time>2025-01-12T12:37:33Z</time>
      </trkpt>
      <trkpt lat="43.43448" lon="6.63233">
        <ele>101</ele>
        <time>2025-01-12T12:37:47Z</time>
      </trkpt>
      <trkpt lat="43.4345" lon="6.63229">
        <ele>100</ele>
        <time>2025-01-12T12:37:53Z</time>
      </trkpt>
      <trkpt lat="43.43454" lon="6.63218">
        <ele>102</ele>
        <time>2025-01-12T12:38:05Z</time>
      </trkpt>
      <trkpt lat="43.43457" lon="6.63216">
        <ele>104</ele>
        <time>2025-01-12T12:38:09Z</time>
      </trkpt>
      <trkpt lat="43.43465" lon="6.63202">
        <ele>102</ele>
        <time>2025-01-12T12:38:27Z</time>
      </trkpt>
      <trkpt lat="43.43466" lon="6.63197">
        <ele>102</ele>
        <time>2025-01-12T12:38:33Z</time>
      </trkpt>
      <trkpt lat="43.4347" lon="6.63196">
        <ele>102</ele>
        <time>2025-01-12T12:38:39Z</time>
      </trkpt>
      <trkpt lat="43.4348" lon="6.63194">
        <ele>105</ele>
        <time>2025-01-12T12:38:55Z</time>
      </trkpt>
      <trkpt lat="43.4349" lon="6.63191">
        <ele>108</ele>
        <time>2025-01-12T12:39:13Z</time>
      </trkpt>
      <trkpt lat="43.43496" lon="6.63181">
        <ele>110</ele>
        <time>2025-01-12T12:39:29Z</time>
      </trkpt>
      <trkpt lat="43.43514" lon="6.63169">
        <ele>113</ele>
        <time>2025-01-12T12:39:59Z</time>
      </trkpt>
      <trkpt lat="43.43523" lon="6.6316">
        <ele>115</ele>
        <time>2025-01-12T12:40:17Z</time>
      </trkpt>
      <trkpt lat="43.43533" lon="6.63158">
        <ele>120</ele>
        <time>2025-01-12T12:40:33Z</time>
      </trkpt>
      <trkpt lat="43.43538" lon="6.63154">
        <ele>119</ele>
        <time>2025-01-12T12:40:41Z</time>
      </trkpt>
      <trkpt lat="43.4356" lon="6.63142">
        <ele>122</ele>
        <time>2025-01-12T12:41:15Z</time>
      </trkpt>
      <trkpt lat="43.43563" lon="6.63139">
        <ele>124</ele>
        <time>2025-01-12T12:41:23Z</time>
      </trkpt>
      <trkpt lat="43.43567" lon="6.63137">
        <ele>125</ele>
        <time>2025-01-12T12:41:29Z</time>
      </trkpt>
      <trkpt lat="43.4357" lon="6.63137">
        <ele>126</ele>
        <time>2025-01-12T12:41:35Z</time>
      </trkpt>
      <trkpt lat="43.43574" lon="6.63149">
        <ele>126</ele>
        <time>2025-01-12T12:41:51Z</time>
      </trkpt>
      <trkpt lat="43.43576" lon="6.63154">
        <ele>126</ele>
        <time>2025-01-12T12:41:55Z</time>
      </trkpt>
      <trkpt lat="43.43577" lon="6.63175">
        <ele>131</ele>
        <time>2025-01-12T12:42:07Z</time>
      </trkpt>
      <trkpt lat="43.43579" lon="6.63181">
        <ele>133</ele>
        <time>2025-01-12T12:42:11Z</time>
      </trkpt>
      <trkpt lat="43.4358" lon="6.63189">
        <ele>136</ele>
        <time>2025-01-12T12:42:15Z</time>
      </trkpt>
      <trkpt lat="43.43585" lon="6.63201">
        <ele>130</ele>
        <time>2025-01-12T12:43:37Z</time>
      </trkpt>
      <trkpt lat="43.43599" lon="6.63237">
        <ele>129</ele>
        <time>2025-01-12T12:44:11Z</time>
      </trkpt>
      <trkpt lat="43.43607" lon="6.63246">
        <ele>128</ele>
        <time>2025-01-12T12:44:35Z</time>
      </trkpt>
      <trkpt lat="43.43617" lon="6.63246">
        <ele>130</ele>
        <time>2025-01-12T12:44:45Z</time>
      </trkpt>
      <trkpt lat="43.43636" lon="6.63252">
        <ele>131</ele>
        <time>2025-01-12T12:45:11Z</time>
      </trkpt>
      <trkpt lat="43.4364" lon="6.6325">
        <ele>133</ele>
        <time>2025-01-12T12:45:17Z</time>
      </trkpt>
      <trkpt lat="43.43644" lon="6.6325">
        <ele>135</ele>
        <time>2025-01-12T12:45:23Z</time>
      </trkpt>
      <trkpt lat="43.43647" lon="6.63247">
        <ele>137</ele>
        <time>2025-01-12T12:45:59Z</time>
      </trkpt>
      <trkpt lat="43.4365" lon="6.63245">
        <ele>139</ele>
        <time>2025-01-12T12:46:03Z</time>
      </trkpt>
      <trkpt lat="43.43656" lon="6.63237">
        <ele>138</ele>
        <time>2025-01-12T12:47:01Z</time>
      </trkpt>
      <trkpt lat="43.4366" lon="6.63236">
        <ele>138</ele>
        <time>2025-01-12T12:47:09Z</time>
      </trkpt>
      <trkpt lat="43.43659" lon="6.63243">
        <ele>137</ele>
        <time>2025-01-12T12:48:52Z</time>
      </trkpt>
      <trkpt lat="43.43658" lon="6.63248">
        <ele>138</ele>
        <time>2025-01-12T12:48:56Z</time>
      </trkpt>
      <trkpt lat="43.43649" lon="6.63254">
        <ele>136</ele>
        <time>2025-01-12T12:49:36Z</time>
      </trkpt>
      <trkpt lat="43.43639" lon="6.63255">
        <ele>133</ele>
        <time>2025-01-12T12:49:58Z</time>
      </trkpt>
      <trkpt lat="43.43639" lon="6.63261">
        <ele>135</ele>
        <time>2025-01-12T12:51:12Z</time>
      </trkpt>
      <trkpt lat="43.43643" lon="6.63264">
        <ele>135</ele>
        <time>2025-01-12T12:51:18Z</time>
      </trkpt>
      <trkpt lat="43.43653" lon="6.63275">
        <ele>132</ele>
        <time>2025-01-12T12:51:34Z</time>
      </trkpt>
      <trkpt lat="43.43654" lon="6.63292">
        <ele>130</ele>
        <time>2025-01-12T12:51:54Z</time>
      </trkpt>
      <trkpt lat="43.43653" lon="6.63298">
        <ele>129</ele>
        <time>2025-01-12T12:52:00Z</time>
      </trkpt>
      <trkpt lat="43.43652" lon="6.63316">
        <ele>128</ele>
        <time>2025-01-12T12:52:14Z</time>
      </trkpt>
      <trkpt lat="43.43652" lon="6.63323">
        <ele>127</ele>
        <time>2025-01-12T12:52:20Z</time>
      </trkpt>
      <trkpt lat="43.43651" lon="6.63327">
        <ele>126</ele>
        <time>2025-01-12T12:52:24Z</time>
      </trkpt>
      <trkpt lat="43.4365" lon="6.6334">
        <ele>124</ele>
        <time>2025-01-12T12:52:36Z</time>
      </trkpt>
      <trkpt lat="43.43649" lon="6.63358">
        <ele>121</ele>
        <time>2025-01-12T12:52:54Z</time>
      </trkpt>
      <trkpt lat="43.43648" lon="6.63364">
        <ele>121</ele>
        <time>2025-01-12T12:53:00Z</time>
      </trkpt>
      <trkpt lat="43.43648" lon="6.6337">
        <ele>120</ele>
        <time>2025-01-12T12:53:06Z</time>
      </trkpt>
      <trkpt lat="43.43646" lon="6.63393">
        <ele>118</ele>
        <time>2025-01-12T12:53:38Z</time>
      </trkpt>
      <trkpt lat="43.4364" lon="6.63399">
        <ele>117</ele>
        <time>2025-01-12T12:53:48Z</time>
      </trkpt>
      <trkpt lat="43.43636" lon="6.63401">
        <ele>116</ele>
        <time>2025-01-12T12:53:52Z</time>
      </trkpt>
      <trkpt lat="43.43632" lon="6.63404">
        <ele>116</ele>
        <time>2025-01-12T12:53:56Z</time>
      </trkpt>
      <trkpt lat="43.43629" lon="6.63408">
        <ele>116</ele>
        <time>2025-01-12T12:54:02Z</time>
      </trkpt>
      <trkpt lat="43.43626" lon="6.63411">
        <ele>115</ele>
        <time>2025-01-12T12:54:06Z</time>
      </trkpt>
      <trkpt lat="43.43624" lon="6.63429">
        <ele>113</ele>
        <time>2025-01-12T12:54:34Z</time>
      </trkpt>
      <trkpt lat="43.43628" lon="6.63432">
        <ele>114</ele>
        <time>2025-01-12T12:54:42Z</time>
      </trkpt>
      <trkpt lat="43.43632" lon="6.63432">
        <ele>115</ele>
        <time>2025-01-12T12:54:46Z</time>
      </trkpt>
      <trkpt lat="43.4364" lon="6.63434">
        <ele>113</ele>
        <time>2025-01-12T12:54:58Z</time>
      </trkpt>
      <trkpt lat="43.43635" lon="6.63474">
        <ele>110</ele>
        <time>2025-01-12T12:55:32Z</time>
      </trkpt>
      <trkpt lat="43.43632" lon="6.63484">
        <ele>109</ele>
        <time>2025-01-12T12:55:42Z</time>
      </trkpt>
      <trkpt lat="43.43621" lon="6.63498">
        <ele>108</ele>
        <time>2025-01-12T12:55:58Z</time>
      </trkpt>
      <trkpt lat="43.4362" lon="6.63503">
        <ele>107</ele>
        <time>2025-01-12T12:56:06Z</time>
      </trkpt>
      <trkpt lat="43.43614" lon="6.63508">
        <ele>106</ele>
        <time>2025-01-12T12:56:14Z</time>
      </trkpt>
      <trkpt lat="43.43604" lon="6.63515">
        <ele>103</ele>
        <time>2025-01-12T12:56:26Z</time>
      </trkpt>
      <trkpt lat="43.436" lon="6.63515">
        <ele>102</ele>
        <time>2025-01-12T12:56:30Z</time>
      </trkpt>
      <trkpt lat="43.43592" lon="6.63514">
        <ele>102</ele>
        <time>2025-01-12T12:56:38Z</time>
      </trkpt>
      <trkpt lat="43.4359" lon="6.63509">
        <ele>102</ele>
        <time>2025-01-12T12:56:46Z</time>
      </trkpt>
      <trkpt lat="43.43583" lon="6.63505">
        <ele>102</ele>
        <time>2025-01-12T12:57:04Z</time>
      </trkpt>
      <trkpt lat="43.43575" lon="6.63497">
        <ele>97</ele>
        <time>2025-01-12T12:57:14Z</time>
      </trkpt>
      <trkpt lat="43.43567" lon="6.63489">
        <ele>97</ele>
        <time>2025-01-12T12:57:24Z</time>
      </trkpt>
      <trkpt lat="43.43549" lon="6.63484">
        <ele>96</ele>
        <time>2025-01-12T12:57:44Z</time>
      </trkpt>
      <trkpt lat="43.43539" lon="6.63482">
        <ele>94</ele>
        <time>2025-01-12T12:57:54Z</time>
      </trkpt>
      <trkpt lat="43.4351" lon="6.63476">
        <ele>90</ele>
        <time>2025-01-12T12:58:24Z</time>
      </trkpt>
      <trkpt lat="43.4349" lon="6.6347">
        <ele>91</ele>
        <time>2025-01-12T12:58:44Z</time>
      </trkpt>
      <trkpt lat="43.43481" lon="6.63469">
        <ele>91</ele>
        <time>2025-01-12T12:58:54Z</time>
      </trkpt>
      <trkpt lat="43.43474" lon="6.63479">
        <ele>88</ele>
        <time>2025-01-12T12:59:06Z</time>
      </trkpt>
      <trkpt lat="43.43476" lon="6.63492">
        <ele>84</ele>
        <time>2025-01-12T12:59:18Z</time>
      </trkpt>
      <trkpt lat="43.4348" lon="6.63494">
        <ele>84</ele>
        <time>2025-01-12T12:59:22Z</time>
      </trkpt>
      <trkpt lat="43.43493" lon="6.63511">
        <ele>86</ele>
        <time>2025-01-12T12:59:46Z</time>
      </trkpt>
      <trkpt lat="43.43499" lon="6.6352">
        <ele>86</ele>
        <time>2025-01-12T12:59:56Z</time>
      </trkpt>
      <trkpt lat="43.43504" lon="6.63524">
        <ele>86</ele>
        <time>2025-01-12T13:00:02Z</time>
      </trkpt>
      <trkpt lat="43.43516" lon="6.63529">
        <ele>88</ele>
        <time>2025-01-12T13:00:14Z</time>
      </trkpt>
      <trkpt lat="43.43523" lon="6.63534">
        <ele>88</ele>
        <time>2025-01-12T13:00:22Z</time>
      </trkpt>
      <trkpt lat="43.43525" lon="6.63539">
        <ele>87</ele>
        <time>2025-01-12T13:00:26Z</time>
      </trkpt>
      <trkpt lat="43.43525" lon="6.63544">
        <ele>87</ele>
        <time>2025-01-12T13:00:30Z</time>
      </trkpt>
      <trkpt lat="43.43524" lon="6.63549">
        <ele>87</ele>
        <time>2025-01-12T13:00:34Z</time>
      </trkpt>
      <trkpt lat="43.43523" lon="6.63554">
        <ele>87</ele>
        <time>2025-01-12T13:00:38Z</time>
      </trkpt>
      <trkpt lat="43.43526" lon="6.63565">
        <ele>88</ele>
        <time>2025-01-12T13:00:46Z</time>
      </trkpt>
      <trkpt lat="43.43528" lon="6.63571">
        <ele>88</ele>
        <time>2025-01-12T13:00:50Z</time>
      </trkpt>
      <trkpt lat="43.4353" lon="6.63576">
        <ele>88</ele>
        <time>2025-01-12T13:00:54Z</time>
      </trkpt>
      <trkpt lat="43.43538" lon="6.63591">
        <ele>88</ele>
        <time>2025-01-12T13:01:08Z</time>
      </trkpt>
      <trkpt lat="43.43546" lon="6.63597">
        <ele>87</ele>
        <time>2025-01-12T13:01:18Z</time>
      </trkpt>
      <trkpt lat="43.43558" lon="6.63618">
        <ele>84</ele>
        <time>2025-01-12T13:01:38Z</time>
      </trkpt>
      <trkpt lat="43.43561" lon="6.6362">
        <ele>84</ele>
        <time>2025-01-12T13:01:42Z</time>
      </trkpt>
      <trkpt lat="43.43573" lon="6.6362">
        <ele>83</ele>
        <time>2025-01-12T13:01:54Z</time>
      </trkpt>
      <trkpt lat="43.43579" lon="6.6362">
        <ele>83</ele>
        <time>2025-01-12T13:02:00Z</time>
      </trkpt>
      <trkpt lat="43.43582" lon="6.63623">
        <ele>84</ele>
        <time>2025-01-12T13:02:16Z</time>
      </trkpt>
      <trkpt lat="43.43584" lon="6.63629">
        <ele>85</ele>
        <time>2025-01-12T13:02:22Z</time>
      </trkpt>
      <trkpt lat="43.43585" lon="6.63636">
        <ele>84</ele>
        <time>2025-01-12T13:02:28Z</time>
      </trkpt>
      <trkpt lat="43.43588" lon="6.63639">
        <ele>83</ele>
        <time>2025-01-12T13:02:32Z</time>
      </trkpt>
      <trkpt lat="43.43592" lon="6.63642">
        <ele>81</ele>
        <time>2025-01-12T13:02:38Z</time>
      </trkpt>
      <trkpt lat="43.43596" lon="6.63641">
        <ele>82</ele>
        <time>2025-01-12T13:02:42Z</time>
      </trkpt>
      <trkpt lat="43.43599" lon="6.63638">
        <ele>83</ele>
        <time>2025-01-12T13:02:46Z</time>
      </trkpt>
      <trkpt lat="43.43609" lon="6.63627">
        <ele>83</ele>
        <time>2025-01-12T13:03:00Z</time>
      </trkpt>
      <trkpt lat="43.43613" lon="6.63625">
        <ele>82</ele>
        <time>2025-01-12T13:03:04Z</time>
      </trkpt>
      <trkpt lat="43.43616" lon="6.63622">
        <ele>82</ele>
        <time>2025-01-12T13:03:08Z</time>
      </trkpt>
      <trkpt lat="43.4362" lon="6.6362">
        <ele>81</ele>
        <time>2025-01-12T13:03:12Z</time>
      </trkpt>
      <trkpt lat="43.43632" lon="6.63628">
        <ele>81</ele>
        <time>2025-01-12T13:03:26Z</time>
      </trkpt>
      <trkpt lat="43.43635" lon="6.63631">
        <ele>82</ele>
        <time>2025-01-12T13:03:30Z</time>
      </trkpt>
      <trkpt lat="43.43639" lon="6.63636">
        <ele>82</ele>
        <time>2025-01-12T13:03:36Z</time>
      </trkpt>
      <trkpt lat="43.43642" lon="6.63638">
        <ele>82</ele>
        <time>2025-01-12T13:03:40Z</time>
      </trkpt>
      <trkpt lat="43.4365" lon="6.6364">
        <ele>83</ele>
        <time>2025-01-12T13:03:50Z</time>
      </trkpt>
      <trkpt lat="43.43667" lon="6.63646">
        <ele>82</ele>
        <time>2025-01-12T13:04:08Z</time>
      </trkpt>
      <trkpt lat="43.43675" lon="6.63643">
        <ele>81</ele>
        <time>2025-01-12T13:04:18Z</time>
      </trkpt>
      <trkpt lat="43.43679" lon="6.63642">
        <ele>82</ele>
        <time>2025-01-12T13:04:22Z</time>
      </trkpt>
      <trkpt lat="43.43683" lon="6.63641">
        <ele>82</ele>
        <time>2025-01-12T13:04:26Z</time>
      </trkpt>
      <trkpt lat="43.43694" lon="6.63637">
        <ele>81</ele>
        <time>2025-01-12T13:04:46Z</time>
      </trkpt>
      <trkpt lat="43.43698" lon="6.63632">
        <ele>80</ele>
        <time>2025-01-12T13:04:52Z</time>
      </trkpt>
      <trkpt lat="43.43701" lon="6.63627">
        <ele>80</ele>
        <time>2025-01-12T13:04:58Z</time>
      </trkpt>
      <trkpt lat="43.43711" lon="6.63614">
        <ele>78</ele>
        <time>2025-01-12T13:05:14Z</time>
      </trkpt>
      <trkpt lat="43.43715" lon="6.63612">
        <ele>80</ele>
        <time>2025-01-12T13:05:20Z</time>
      </trkpt>
      <trkpt lat="43.43716" lon="6.63607">
        <ele>81</ele>
        <time>2025-01-12T13:05:28Z</time>
      </trkpt>
      <trkpt lat="43.4372" lon="6.63606">
        <ele>81</ele>
        <time>2025-01-12T13:05:30Z</time>
      </trkpt>
      <trkpt lat="43.43724" lon="6.63601">
        <ele>80</ele>
        <time>2025-01-12T13:05:36Z</time>
      </trkpt>
      <trkpt lat="43.43726" lon="6.63597">
        <ele>79</ele>
        <time>2025-01-12T13:05:42Z</time>
      </trkpt>
      <trkpt lat="43.43728" lon="6.63593">
        <ele>80</ele>
        <time>2025-01-12T13:05:46Z</time>
      </trkpt>
      <trkpt lat="43.43727" lon="6.63586">
        <ele>78</ele>
        <time>2025-01-12T13:06:28Z</time>
      </trkpt>
      <trkpt lat="43.43729" lon="6.63579">
        <ele>79</ele>
        <time>2025-01-12T13:06:36Z</time>
      </trkpt>
      <trkpt lat="43.43731" lon="6.63575">
        <ele>81</ele>
        <time>2025-01-12T13:06:40Z</time>
      </trkpt>
      <trkpt lat="43.43733" lon="6.63569">
        <ele>79</ele>
        <time>2025-01-12T13:06:44Z</time>
      </trkpt>
      <trkpt lat="43.43735" lon="6.63563">
        <ele>79</ele>
        <time>2025-01-12T13:06:48Z</time>
      </trkpt>
      <trkpt lat="43.43734" lon="6.63556">
        <ele>78</ele>
        <time>2025-01-12T13:06:54Z</time>
      </trkpt>
      <trkpt lat="43.43735" lon="6.63551">
        <ele>76</ele>
        <time>2025-01-12T13:06:58Z</time>
      </trkpt>
      <trkpt lat="43.43737" lon="6.63546">
        <ele>76</ele>
        <time>2025-01-12T13:07:04Z</time>
      </trkpt>
      <trkpt lat="43.4374" lon="6.63542">
        <ele>76</ele>
        <time>2025-01-12T13:07:08Z</time>
      </trkpt>
      <trkpt lat="43.43745" lon="6.63538">
        <ele>77</ele>
        <time>2025-01-12T13:07:12Z</time>
      </trkpt>
      <trkpt lat="43.43762" lon="6.63537">
        <ele>79</ele>
        <time>2025-01-12T13:07:30Z</time>
      </trkpt>
      <trkpt lat="43.43768" lon="6.63535">
        <ele>78</ele>
        <time>2025-01-12T13:07:36Z</time>
      </trkpt>
      <trkpt lat="43.43771" lon="6.63531">
        <ele>79</ele>
        <time>2025-01-12T13:07:40Z</time>
      </trkpt>
      <trkpt lat="43.43773" lon="6.63527">
        <ele>79</ele>
        <time>2025-01-12T13:07:44Z</time>
      </trkpt>
      <trkpt lat="43.43777" lon="6.63521">
        <ele>79</ele>
        <time>2025-01-12T13:07:48Z</time>
      </trkpt>
      <trkpt lat="43.43779" lon="6.63516">
        <ele>80</ele>
        <time>2025-01-12T13:07:52Z</time>
      </trkpt>
      <trkpt lat="43.43782" lon="6.63514">
        <ele>79</ele>
        <time>2025-01-12T13:07:56Z</time>
      </trkpt>
      <trkpt lat="43.43792" lon="6.63501">
        <ele>79</ele>
        <time>2025-01-12T13:08:10Z</time>
      </trkpt>
      <trkpt lat="43.43793" lon="6.63497">
        <ele>80</ele>
        <time>2025-01-12T13:08:14Z</time>
      </trkpt>
      <trkpt lat="43.43795" lon="6.63493">
        <ele>80</ele>
        <time>2025-01-12T13:08:18Z</time>
      </trkpt>
      <trkpt lat="43.43798" lon="6.6349">
        <ele>80</ele>
        <time>2025-01-12T13:08:22Z</time>
      </trkpt>
      <trkpt lat="43.43801" lon="6.63481">
        <ele>81</ele>
        <time>2025-01-12T13:08:30Z</time>
      </trkpt>
      <trkpt lat="43.43801" lon="6.63474">
        <ele>81</ele>
        <time>2025-01-12T13:08:36Z</time>
      </trkpt>
      <trkpt lat="43.43803" lon="6.6347">
        <ele>81</ele>
        <time>2025-01-12T13:08:40Z</time>
      </trkpt>
      <trkpt lat="43.43809" lon="6.63466">
        <ele>81</ele>
        <time>2025-01-12T13:08:54Z</time>
      </trkpt>
      <trkpt lat="43.43808" lon="6.63461">
        <ele>82</ele>
        <time>2025-01-12T13:08:58Z</time>
      </trkpt>
      <trkpt lat="43.43808" lon="6.63456">
        <ele>83</ele>
        <time>2025-01-12T13:09:02Z</time>
      </trkpt>
      <trkpt lat="43.43804" lon="6.63453">
        <ele>83</ele>
        <time>2025-01-12T13:09:06Z</time>
      </trkpt>
      <trkpt lat="43.43801" lon="6.6345">
        <ele>82</ele>
        <time>2025-01-12T13:09:22Z</time>
      </trkpt>
      <trkpt lat="43.43801" lon="6.63443">
        <ele>79</ele>
        <time>2025-01-12T13:09:26Z</time>
      </trkpt>
      <trkpt lat="43.43804" lon="6.63427">
        <ele>78</ele>
        <time>2025-01-12T13:09:38Z</time>
      </trkpt>
      <trkpt lat="43.43804" lon="6.63416">
        <ele>76</ele>
        <time>2025-01-12T13:09:46Z</time>
      </trkpt>
      <trkpt lat="43.43802" lon="6.63393">
        <ele>75</ele>
        <time>2025-01-12T13:10:02Z</time>
      </trkpt>
      <trkpt lat="43.43799" lon="6.63381">
        <ele>75</ele>
        <time>2025-01-12T13:10:14Z</time>
      </trkpt>
      <trkpt lat="43.438" lon="6.63374">
        <ele>74</ele>
        <time>2025-01-12T13:10:20Z</time>
      </trkpt>
      <trkpt lat="43.43803" lon="6.63369">
        <ele>74</ele>
        <time>2025-01-12T13:10:24Z</time>
      </trkpt>
      <trkpt lat="43.43807" lon="6.6337">
        <ele>74</ele>
        <time>2025-01-12T13:10:32Z</time>
      </trkpt>
      <trkpt lat="43.43812" lon="6.63374">
        <ele>73</ele>
        <time>2025-01-12T13:10:38Z</time>
      </trkpt>
      <trkpt lat="43.43815" lon="6.63372">
        <ele>74</ele>
        <time>2025-01-12T13:10:42Z</time>
      </trkpt>
      <trkpt lat="43.43819" lon="6.63373">
        <ele>74</ele>
        <time>2025-01-12T13:10:46Z</time>
      </trkpt>
      <trkpt lat="43.4382" lon="6.63378">
        <ele>74</ele>
        <time>2025-01-12T13:10:50Z</time>
      </trkpt>
      <trkpt lat="43.43822" lon="6.63377">
        <ele>73</ele>
        <time>2025-01-12T13:11:02Z</time>
      </trkpt>
      <trkpt lat="43.4383" lon="6.63375">
        <ele>72</ele>
        <time>2025-01-12T13:11:10Z</time>
      </trkpt>
      <trkpt lat="43.43848" lon="6.63362">
        <ele>67</ele>
        <time>2025-01-12T13:11:34Z</time>
      </trkpt>
      <trkpt lat="43.43851" lon="6.63358">
        <ele>67</ele>
        <time>2025-01-12T13:11:38Z</time>
      </trkpt>
      <trkpt lat="43.43854" lon="6.63355">
        <ele>65</ele>
        <time>2025-01-12T13:11:42Z</time>
      </trkpt>
      <trkpt lat="43.43864" lon="6.63353">
        <ele>63</ele>
        <time>2025-01-12T13:11:54Z</time>
      </trkpt>
      <trkpt lat="43.43875" lon="6.63353">
        <ele>62</ele>
        <time>2025-01-12T13:12:08Z</time>
      </trkpt>
      <trkpt lat="43.43882" lon="6.63346">
        <ele>62</ele>
        <time>2025-01-12T13:12:20Z</time>
      </trkpt>
      <trkpt lat="43.43886" lon="6.63345">
        <ele>62</ele>
        <time>2025-01-12T13:12:28Z</time>
      </trkpt>
      <trkpt lat="43.4389" lon="6.63346">
        <ele>61</ele>
        <time>2025-01-12T13:12:34Z</time>
      </trkpt>
      <trkpt lat="43.43893" lon="6.63342">
        <ele>60</ele>
        <time>2025-01-12T13:12:40Z</time>
      </trkpt>
      <trkpt lat="43.43896" lon="6.63337">
        <ele>59</ele>
        <time>2025-01-12T13:12:46Z</time>
      </trkpt>
      <trkpt lat="43.43899" lon="6.63336">
        <ele>59</ele>
        <time>2025-01-12T13:12:52Z</time>
      </trkpt>
      <trkpt lat="43.43902" lon="6.63331">
        <ele>58</ele>
        <time>2025-01-12T13:12:58Z</time>
      </trkpt>
      <trkpt lat="43.43906" lon="6.6333">
        <ele>56</ele>
        <time>2025-01-12T13:13:06Z</time>
      </trkpt>
      <trkpt lat="43.4391" lon="6.63327">
        <ele>55</ele>
        <time>2025-01-12T13:13:14Z</time>
      </trkpt>
      <trkpt lat="43.43913" lon="6.63322">
        <ele>54</ele>
        <time>2025-01-12T13:13:20Z</time>
      </trkpt>
      <trkpt lat="43.43917" lon="6.63323">
        <ele>53</ele>
        <time>2025-01-12T13:13:26Z</time>
      </trkpt>
      <trkpt lat="43.43928" lon="6.6333">
        <ele>52</ele>
        <time>2025-01-12T13:13:46Z</time>
      </trkpt>
      <trkpt lat="43.4393" lon="6.63335">
        <ele>52</ele>
        <time>2025-01-12T13:13:52Z</time>
      </trkpt>
      <trkpt lat="43.43933" lon="6.63339">
        <ele>51</ele>
        <time>2025-01-12T13:13:58Z</time>
      </trkpt>
      <trkpt lat="43.43939" lon="6.63348">
        <ele>49</ele>
        <time>2025-01-12T13:14:10Z</time>
      </trkpt>
      <trkpt lat="43.43942" lon="6.63351">
        <ele>49</ele>
        <time>2025-01-12T13:14:16Z</time>
      </trkpt>
      <trkpt lat="43.43951" lon="6.63361">
        <ele>48</ele>
        <time>2025-01-12T13:14:36Z</time>
      </trkpt>
      <trkpt lat="43.43953" lon="6.63364">
        <ele>47</ele>
        <time>2025-01-12T13:14:42Z</time>
      </trkpt>
      <trkpt lat="43.43962" lon="6.63368">
        <ele>45</ele>
        <time>2025-01-12T13:14:56Z</time>
      </trkpt>
      <trkpt lat="43.4397" lon="6.63375">
        <ele>44</ele>
        <time>2025-01-12T13:15:12Z</time>
      </trkpt>
      <trkpt lat="43.43971" lon="6.6338">
        <ele>44</ele>
        <time>2025-01-12T13:16:04Z</time>
      </trkpt>
      <trkpt lat="43.43979" lon="6.63385">
        <ele>44</ele>
        <time>2025-01-12T13:16:14Z</time>
      </trkpt>
      <trkpt lat="43.43979" lon="6.63385">
        <ele>44</ele>
        <time>2025-01-12T13:16:14Z</time>
      </trkpt>
    </trkseg>
  </trk>
</gpx>